Time;durP1;ratioP1;P1;durP2;ratioP2;P2;SDS_P1;SDS_P2;PMS_P1;PMS_P2;Temp;Humidity;BMP_temperature;BMP_pressure;BME280_temperature;BME280_humidity;BME280_pressure;Samples;Min_cycle;Max_cycle;Signal;HPM_P1;HPM_P2
2023/01/04 00:01:02;;;;;;;8.20;2.28;;;5.70;94.00;;;;;;5028198;28;20108;-68
2023/01/04 00:03:27;;;;;;;5.13;1.80;;;5.70;93.70;;;;;;5025748;28;20040;-68
2023/01/04 00:05:53;;;;;;;5.10;1.83;;;5.70;93.60;;;;;;5023457;28;20041;-67
2023/01/04 00:08:18;;;;;;;4.70;1.60;;;5.70;93.50;;;;;;5030171;28;20160;-68
2023/01/04 00:10:44;;;;;;;6.03;1.60;;;5.80;93.30;;;;;;5028758;28;20038;-68
2023/01/04 00:13:10;;;;;;;7.05;1.73;;;5.80;93.00;;;;;;5032112;28;20061;-68
2023/01/04 00:15:35;;;;;;;5.35;1.73;;;5.80;93.00;;;;;;5030965;28;20391;-68
2023/01/04 00:18:01;;;;;;;8.32;1.83;;;5.80;93.10;;;;;;5027561;28;20037;-68
2023/01/04 00:20:26;;;;;;;5.90;1.80;;;5.80;93.10;;;;;;5022979;28;20140;-68
2023/01/04 00:22:52;;;;;;;4.50;1.50;;;5.70;93.20;;;;;;5028673;28;20422;-67
2023/01/04 00:25:17;;;;;;;6.65;1.80;;;5.70;93.30;;;;;;5031806;28;20084;-68
2023/01/04 00:27:43;;;;;;;5.50;1.90;;;5.70;93.20;;;;;;5032787;28;20029;-68
2023/01/04 00:30:09;;;;;;;5.40;1.90;;;5.70;92.80;;;;;;5031235;28;20091;-67
2023/01/04 00:32:34;;;;;;;4.70;1.77;;;5.80;93.00;;;;;;5032424;28;20370;-68
2023/01/04 00:35:00;;;;;;;4.22;1.50;;;5.70;93.10;;;;;;5028904;28;20034;-68
2023/01/04 00:37:25;;;;;;;4.82;1.42;;;5.70;93.40;;;;;;5030249;28;20371;-67
2023/01/04 00:39:50;;;;;;;5.93;1.73;;;5.60;93.40;;;;;;5024714;28;20037;-68
2023/01/04 00:42:16;;;;;;;6.47;1.77;;;5.60;93.50;;;;;;5026359;28;20058;-68
2023/01/04 00:44:42;;;;;;;6.00;1.85;;;5.60;93.50;;;;;;5024844;28;20112;-68
2023/01/04 00:47:07;;;;;;;5.32;1.33;;;5.70;93.10;;;;;;5026537;28;20029;-67
2023/01/04 00:49:33;;;;;;;5.63;1.70;;;5.70;93.20;;;;;;5028914;28;20041;-67
2023/01/04 00:51:58;;;;;;;5.20;1.50;;;5.70;93.00;;;;;;5022021;28;20030;-67
2023/01/04 00:54:24;;;;;;;3.97;1.55;;;5.70;93.00;;;;;;5029811;28;20029;-68
2023/01/04 00:56:50;;;;;;;5.68;1.63;;;5.60;93.10;;;;;;5030484;28;20065;-68
2023/01/04 00:59:18;;;;;;;5.53;1.50;;;5.70;93.30;;;;;;5025143;28;20128;-69
2023/01/04 01:01:44;;;;;;;7.30;1.60;;;5.60;93.30;;;;;;5026593;28;20029;-68
2023/01/04 01:04:12;;;;;;;3.55;1.33;;;5.60;93.40;;;;;;5018598;28;20129;-68
2023/01/04 01:06:38;;;;;;;9.40;1.63;;;5.70;93.20;;;;;;5029678;28;20036;-69
2023/01/04 01:09:03;;;;;;;5.63;1.45;;;5.60;93.20;;;;;;5024990;28;20029;-68
2023/01/04 01:11:30;;;;;;;5.63;1.70;;;5.60;93.40;;;;;;5025545;28;20458;-68
2023/01/04 01:13:57;;;;;;;8.68;1.90;;;5.60;93.40;;;;;;5030943;28;20033;-67
2023/01/04 01:16:24;;;;;;;8.52;1.80;;;5.60;93.40;;;;;;5020419;28;20038;-68
2023/01/04 01:18:49;;;;;;;5.70;1.77;;;5.70;92.80;;;;;;5030065;28;20100;-68
2023/01/04 01:21:26;;;;;;;5.43;1.55;;;5.70;92.80;;;;;;5027405;28;20120;-68
2023/01/04 01:23:54;;;;;;;4.80;1.40;;;5.80;92.40;;;;;;5029583;28;20041;-68
2023/01/04 01:26:22;;;;;;;3.53;1.30;;;5.80;92.50;;;;;;5031213;28;20040;-68
2023/01/04 01:28:48;;;;;;;4.53;1.35;;;5.80;92.40;;;;;;5029136;28;20029;-68
2023/01/04 01:31:16;;;;;;;7.70;1.77;;;5.80;92.40;;;;;;5028490;28;20037;-68
2023/01/04 01:33:43;;;;;;;7.10;1.40;;;5.80;92.30;;;;;;5024052;28;20040;-68
2023/01/04 01:36:10;;;;;;;4.85;1.55;;;6.00;91.40;;;;;;5027551;28;20037;-68
2023/01/04 01:38:37;;;;;;;6.60;1.55;;;6.00;91.60;;;;;;5030203;28;20045;-68
2023/01/04 01:41:03;;;;;;;10.63;1.70;;;6.00;91.80;;;;;;5031630;28;20033;-68
2023/01/04 01:43:49;;;;;;;4.40;1.23;;;6.00;91.70;;;;;;5027787;28;20087;-68
2023/01/04 01:46:22;;;;;;;6.65;1.52;;;6.00;91.80;;;;;;5023453;28;20035;-68
2023/01/04 01:48:49;;;;;;;2.80;1.15;;;5.90;92.10;;;;;;5031195;28;20452;-68
2023/01/04 01:51:16;;;;;;;3.13;1.30;;;6.00;91.40;;;;;;5023544;28;20025;-68
2023/01/04 01:53:44;;;;;;;3.08;1.27;;;6.10;91.10;;;;;;5029573;28;20033;-68
2023/01/04 01:56:11;;;;;;;5.05;1.60;;;6.00;91.60;;;;;;5032453;28;20030;-68
2023/01/04 01:58:40;;;;;;;4.63;1.45;;;6.00;91.60;;;;;;5020266;28;20037;-68
2023/01/04 02:01:07;;;;;;;5.72;1.48;;;6.00;91.20;;;;;;5026991;28;20040;-68
2023/01/04 02:03:40;;;;;;;4.97;1.50;;;6.00;91.40;;;;;;5024161;28;20037;-68
2023/01/04 02:06:16;;;;;;;5.65;1.25;;;5.90;91.70;;;;;;5025810;28;20033;-69
2023/01/04 02:08:42;;;;;;;2.67;1.38;;;6.00;91.20;;;;;;5021478;28;20469;-68
2023/01/04 02:11:08;;;;;;;3.88;1.33;;;6.10;91.00;;;;;;5028040;28;20065;-68
2023/01/04 02:16:47;;;;;;;6.25;1.58;;;5.90;91.50;;;;;;5027777;28;20091;-67
2023/01/04 02:19:37;;;;;;;4.90;1.10;;;6.00;91.20;;;;;;5029899;28;20038;-68
2023/01/04 02:22:38;;;;;;;4.55;1.48;;;6.00;91.10;;;;;;5028203;28;20164;-68
2023/01/04 02:25:43;;;;;;;6.53;1.63;;;6.10;90.90;;;;;;5022645;28;20056;-70
2023/01/04 02:28:48;;;;;;;3.85;1.33;;;6.00;91.10;;;;;;5029375;28;20458;-67
2023/01/04 02:31:20;;;;;;;6.03;1.48;;;6.00;91.00;;;;;;5019950;28;20041;-67
2023/01/04 02:34:15;;;;;;;7.30;1.30;;;6.10;90.90;;;;;;5028946;28;20033;-68
2023/01/04 02:36:57;;;;;;;2.97;1.08;;;6.10;90.80;;;;;;5025508;28;20075;-68
2023/01/04 02:39:41;;;;;;;5.72;1.10;;;6.10;90.80;;;;;;5033931;28;20110;-68
2023/01/04 02:42:16;;;;;;;5.72;1.23;;;6.10;90.80;;;;;;5028617;28;20038;-68
2023/01/04 02:44:57;;;;;;;2.88;1.20;;;6.10;90.60;;;;;;5028251;28;20381;-68
2023/01/04 02:50:30;;;;;;;4.68;1.67;;;6.10;90.60;;;;;;5031246;28;20036;-68
2023/01/04 02:52:58;;;;;;;5.80;1.35;;;6.20;90.40;;;;;;5027877;28;20061;-68
2023/01/04 02:55:31;;;;;;;4.63;1.63;;;6.20;90.90;;;;;;5032986;28;20035;-68
2023/01/04 02:58:09;;;;;;;6.03;1.33;;;6.10;90.90;;;;;;5034529;28;20034;-68
2023/01/04 03:07:40;;;;;;;3.45;1.20;;;6.20;90.60;;;;;;5024421;28;20072;-68
2023/01/04 03:10:12;;;;;;;8.18;1.52;;;6.30;90.80;;;;;;5031462;28;20037;-67
2023/01/04 03:12:43;;;;;;;5.90;1.55;;;6.20;91.10;;;;;;5028572;28;22421;-68
2023/01/04 03:15:26;;;;;;;2.97;1.30;;;6.20;91.20;;;;;;5029539;28;20037;-68
2023/01/04 03:17:56;;;;;;;5.70;1.63;;;6.20;91.90;;;;;;5032678;28;20576;-68
2023/01/04 03:20:24;;;;;;;6.63;1.52;;;6.20;92.20;;;;;;5028334;28;20038;-67
2023/01/04 03:37:50;;;;;;;6.43;1.60;;;5.90;94.40;;;;;;5025059;28;20063;-68
2023/01/04 03:49:01;;;;;;;7.45;1.70;;;5.80;95.80;;;;;;5037258;28;20098;-68
2023/01/04 03:51:31;;;;;;;3.65;1.70;;;5.80;96.20;;;;;;5031929;28;20084;-69
2023/01/04 03:54:02;;;;;;;2.70;1.60;;;5.80;96.10;;;;;;5031202;28;20033;-68
2023/01/04 03:56:30;;;;;;;5.22;1.70;;;5.80;96.40;;;;;;5032191;28;20037;-68
2023/01/04 03:58:55;;;;;;;6.05;1.73;;;5.80;96.60;;;;;;5029991;28;20036;-68
2023/01/04 04:01:23;;;;;;;7.55;1.58;;;5.80;96.50;;;;;;5026460;28;20041;-68
2023/01/04 04:09:17;;;;;;;3.97;1.50;;;5.80;96.90;;;;;;5030409;28;20068;-68
2023/01/04 04:11:43;;;;;;;7.13;1.77;;;5.80;97.00;;;;;;5032703;28;20456;-68
2023/01/04 04:14:08;;;;;;;7.85;1.73;;;5.80;97.10;;;;;;5030597;28;21692;-68
2023/01/04 04:16:34;;;;;;;6.97;1.98;;;5.80;97.40;;;;;;5030767;28;20041;-69
2023/01/04 04:18:59;;;;;;;6.25;1.50;;;5.80;97.40;;;;;;5027118;28;20179;-68
2023/01/04 04:21:25;;;;;;;7.03;2.10;;;5.70;97.60;;;;;;5031008;28;20117;-67
2023/01/04 04:23:50;;;;;;;5.05;1.63;;;5.80;97.70;;;;;;5020349;28;20048;-67
2023/01/04 04:26:16;;;;;;;9.70;1.90;;;5.70;97.80;;;;;;5031052;28;20434;-68
2023/01/04 04:28:43;;;;;;;5.25;1.90;;;5.80;98.00;;;;;;5023459;28;20398;-68
2023/01/04 04:31:08;;;;;;;8.05;2.03;;;5.80;98.10;;;;;;5029179;28;20458;-68
2023/01/04 04:33:34;;;;;;;4.97;2.10;;;5.80;98.20;;;;;;5024822;28;20179;-68
2023/01/04 04:35:59;;;;;;;11.70;2.67;;;5.80;98.20;;;;;;5023915;28;20116;-67
2023/01/04 04:38:24;;;;;;;6.47;1.63;;;5.80;98.40;;;;;;5028340;28;20148;-68
2023/01/04 04:43:34;;;;;;;3.63;1.95;;;5.80;98.70;;;;;;5026558;28;20052;-67
2023/01/04 04:46:00;;;;;;;9.25;2.00;;;5.80;98.70;;;;;;5027887;28;20497;-68
2023/01/04 04:48:26;;;;;;;5.20;1.88;;;5.80;98.80;;;;;;5027636;28;20029;-67
2023/01/04 04:50:51;;;;;;;8.05;1.80;;;5.80;98.90;;;;;;5027824;28;20033;-68
2023/01/04 04:53:17;;;;;;;9.13;2.00;;;5.80;98.90;;;;;;5027062;28;20132;-68
2023/01/04 04:55:42;;;;;;;7.03;2.28;;;5.80;99.00;;;;;;5028256;28;20537;-67
2023/01/04 04:58:08;;;;;;;4.32;1.92;;;5.90;99.10;;;;;;5028476;28;20393;-67
2023/01/04 05:00:33;;;;;;;8.85;2.80;;;5.90;99.20;;;;;;5025425;28;20042;-68
2023/01/04 05:03:00;;;;;;;9.18;2.47;;;5.90;99.30;;;;;;5026476;28;20065;-68
2023/01/04 05:05:26;;;;;;;5.07;2.15;;;5.90;99.30;;;;;;5024626;28;20025;-68
2023/01/04 05:07:51;;;;;;;6.85;2.65;;;6.00;99.40;;;;;;5015482;28;22321;-68
2023/01/04 05:10:17;;;;;;;4.85;2.20;;;6.00;99.40;;;;;;5027955;28;20395;-68
2023/01/04 05:13:01;;;;;;;6.88;2.33;;;6.00;99.60;;;;;;5029167;28;20034;-68
2023/01/04 05:15:28;;;;;;;7.03;2.88;;;6.10;99.60;;;;;;5028275;28;20036;-68
2023/01/04 05:17:53;;;;;;;5.10;1.92;;;6.10;99.70;;;;;;5029713;28;20050;-68
2023/01/04 05:20:19;;;;;;;11.18;2.50;;;6.10;99.80;;;;;;5027536;28;20384;-67
2023/01/04 05:22:44;;;;;;;4.63;2.28;;;6.10;99.80;;;;;;5029077;28;20049;-69
2023/01/04 05:25:10;;;;;;;5.28;2.30;;;6.10;99.80;;;;;;5024815;28;20432;-68
2023/01/04 05:27:36;;;;;;;3.55;1.85;;;6.10;99.90;;;;;;5028856;28;20041;-68
2023/01/04 05:32:47;;;;;;;6.03;2.47;;;6.20;99.90;;;;;;5021337;28;20028;-71
2023/01/04 05:35:13;;;;;;;4.60;1.95;;;6.30;99.90;;;;;;5028601;28;20040;-71
2023/01/04 05:37:38;;;;;;;3.35;1.92;;;6.30;99.90;;;;;;5027914;28;20121;-71
2023/01/04 05:40:04;;;;;;;6.22;2.40;;;6.40;99.90;;;;;;5022777;28;20040;-71
2023/01/04 05:42:29;;;;;;;6.93;2.20;;;6.50;99.90;;;;;;5022093;28;20045;-71
2023/01/04 05:44:57;;;;;;;7.95;2.33;;;6.50;99.90;;;;;;5021384;28;20086;-70
2023/01/04 05:47:23;;;;;;;5.97;2.28;;;6.50;99.90;;;;;;5018298;28;20026;-71
2023/01/04 05:49:49;;;;;;;3.47;2.03;;;6.60;99.90;;;;;;5022009;28;20029;-70
2023/01/04 05:52:15;;;;;;;5.07;2.42;;;6.70;99.90;;;;;;5027494;28;20044;-71
2023/01/04 05:54:40;;;;;;;9.52;2.70;;;6.70;99.90;;;;;;5028530;28;20045;-71
2023/01/04 05:57:06;;;;;;;4.43;2.40;;;6.70;99.90;;;;;;5022391;28;20033;-71
2023/01/04 05:59:32;;;;;;;6.18;2.00;;;6.70;99.90;;;;;;5027709;28;20041;-71
2023/01/04 06:01:57;;;;;;;6.38;2.50;;;6.80;99.90;;;;;;5027425;28;20025;-70
2023/01/04 06:04:23;;;;;;;4.47;2.22;;;6.80;99.90;;;;;;5021746;28;20041;-71
2023/01/04 06:06:48;;;;;;;5.25;2.05;;;6.90;99.90;;;;;;5025082;28;20101;-71
2023/01/04 06:09:14;;;;;;;5.93;2.30;;;7.00;99.90;;;;;;5028980;28;20116;-71
2023/01/04 06:11:39;;;;;;;4.57;1.98;;;7.00;99.90;;;;;;5030904;28;20026;-71
2023/01/04 06:14:04;;;;;;;4.43;2.45;;;7.00;99.90;;;;;;5032408;28;20038;-71
2023/01/04 06:16:30;;;;;;;5.85;2.60;;;7.00;99.90;;;;;;5028890;28;20053;-71
2023/01/04 06:18:56;;;;;;;4.00;2.10;;;7.10;99.90;;;;;;5033221;28;20032;-71
2023/01/04 06:21:21;;;;;;;4.82;2.25;;;7.10;99.90;;;;;;5026531;28;20057;-71
2023/01/04 06:23:47;;;;;;;5.47;2.35;;;7.20;99.90;;;;;;5030398;28;20111;-71
2023/01/04 06:26:12;;;;;;;8.07;2.15;;;7.30;99.90;;;;;;5029824;28;20068;-71
2023/01/04 06:28:38;;;;;;;4.78;2.42;;;7.30;99.90;;;;;;5030468;28;20083;-71
2023/01/04 06:31:05;;;;;;;3.05;2.08;;;7.30;99.90;;;;;;5029531;28;20471;-71
2023/01/04 06:33:31;;;;;;;4.78;2.35;;;7.30;99.90;;;;;;5023457;28;20119;-71
2023/01/04 06:35:56;;;;;;;6.88;2.72;;;7.40;99.90;;;;;;5031236;28;20030;-71
2023/01/04 06:38:22;;;;;;;4.65;2.58;;;7.40;99.90;;;;;;5025832;28;20052;-71
2023/01/04 06:40:47;;;;;;;5.50;2.50;;;7.40;99.90;;;;;;5027505;28;20443;-71
2023/01/04 06:43:13;;;;;;;5.80;2.50;;;7.40;99.90;;;;;;5028806;28;20410;-71
2023/01/04 06:45:38;;;;;;;4.90;2.38;;;7.40;99.90;;;;;;5028633;28;20037;-71
2023/01/04 06:48:04;;;;;;;4.00;2.50;;;7.50;99.90;;;;;;5032247;28;20155;-70
2023/01/04 06:50:29;;;;;;;6.78;2.58;;;7.50;99.90;;;;;;5026641;28;20030;-71
2023/01/04 06:52:55;;;;;;;3.47;2.30;;;7.60;99.90;;;;;;5024992;28;20034;-71
2023/01/04 06:55:20;;;;;;;5.75;2.40;;;7.60;99.90;;;;;;5030580;28;20037;-71
2023/01/04 06:57:46;;;;;;;6.25;2.30;;;7.70;99.90;;;;;;5023069;28;20036;-71
2023/01/04 07:00:12;;;;;;;6.15;3.33;;;7.60;99.90;;;;;;5029468;28;20429;-71
2023/01/04 07:02:37;;;;;;;5.75;3.22;;;7.70;99.90;;;;;;5033634;28;20040;-71
2023/01/04 07:05:03;;;;;;;6.75;3.17;;;7.80;99.90;;;;;;5025792;28;20033;-71
2023/01/04 07:07:29;;;;;;;5.68;3.20;;;7.80;99.90;;;;;;5021278;28;20379;-71
2023/01/04 07:09:54;;;;;;;6.80;3.63;;;7.80;99.90;;;;;;5032664;28;20496;-71
2023/01/04 07:12:20;;;;;;;5.75;3.60;;;7.80;99.90;;;;;;5028445;28;20083;-71
2023/01/04 07:14:45;;;;;;;5.82;3.58;;;7.80;99.90;;;;;;5031439;28;20124;-71
2023/01/04 07:17:11;;;;;;;7.90;4.15;;;7.90;99.90;;;;;;5027556;28;20489;-71
2023/01/04 07:19:37;;;;;;;8.93;4.00;;;7.90;99.90;;;;;;5026682;28;20116;-71
2023/01/04 07:22:02;;;;;;;6.78;4.28;;;8.00;99.90;;;;;;5022675;28;20057;-71
2023/01/04 07:24:28;;;;;;;9.20;5.13;;;8.00;99.90;;;;;;5026754;28;20072;-72
2023/01/04 07:26:53;;;;;;;9.05;5.43;;;8.00;99.90;;;;;;5027776;28;20414;-72
2023/01/04 07:29:21;;;;;;;10.38;4.82;;;8.00;99.90;;;;;;5027094;28;20080;-72
2023/01/04 07:31:48;;;;;;;8.90;5.68;;;8.10;99.90;;;;;;5021410;28;20057;-71
2023/01/04 07:34:15;;;;;;;9.38;5.90;;;8.10;99.90;;;;;;5029462;28;20025;-71
2023/01/04 07:36:41;;;;;;;8.48;5.55;;;8.10;99.90;;;;;;5030245;28;20036;-71
2023/01/04 07:39:09;;;;;;;8.52;5.43;;;8.20;99.90;;;;;;5026052;28;20034;-71
2023/01/04 07:41:36;;;;;;;10.82;6.55;;;8.20;99.90;;;;;;5024520;28;20036;-71
2023/01/04 07:44:02;;;;;;;10.32;6.22;;;8.20;99.90;;;;;;5022610;28;20026;-71
2023/01/04 07:46:28;;;;;;;9.23;6.78;;;8.30;99.90;;;;;;5028496;28;20371;-71
2023/01/04 07:48:53;;;;;;;8.50;6.30;;;8.30;99.90;;;;;;5025638;28;20036;-72
2023/01/04 07:51:18;;;;;;;9.98;6.28;;;8.30;99.90;;;;;;5027407;28;20489;-71
2023/01/04 07:53:44;;;;;;;8.18;5.60;;;8.40;99.90;;;;;;5030200;28;20026;-71
2023/01/04 07:56:09;;;;;;;9.77;5.95;;;8.50;99.90;;;;;;5025671;28;20042;-72
2023/01/04 07:58:35;;;;;;;7.03;4.70;;;8.50;99.90;;;;;;5026801;28;20481;-71
2023/01/04 08:01:12;;;;;;;12.43;6.55;;;8.50;99.90;;;;;;5025243;28;20026;-71
2023/01/04 08:03:38;;;;;;;11.52;5.88;;;8.50;99.90;;;;;;5029196;28;20043;-71
2023/01/04 08:06:05;;;;;;;9.57;6.30;;;8.50;99.90;;;;;;5024989;28;20061;-71
2023/01/04 08:08:31;;;;;;;9.25;6.40;;;8.50;99.90;;;;;;5027060;28;20462;-72
2023/01/04 08:11:04;;;;;;;8.57;5.78;;;8.60;99.90;;;;;;5028692;28;20048;-71
2023/01/04 08:13:30;;;;;;;10.02;5.78;;;8.60;99.90;;;;;;5029019;28;20424;-71
2023/01/04 08:15:55;;;;;;;10.25;6.15;;;8.70;99.90;;;;;;5031183;28;20083;-71
2023/01/04 08:18:21;;;;;;;9.40;5.95;;;8.60;99.90;;;;;;5029559;28;20042;-71
2023/01/04 08:20:46;;;;;;;8.85;5.35;;;8.70;99.90;;;;;;5021514;28;20041;-71
2023/01/04 08:23:12;;;;;;;7.60;5.50;;;8.70;99.90;;;;;;5028886;28;20478;-72
2023/01/04 08:25:38;;;;;;;8.75;5.60;;;8.80;99.90;;;;;;5020082;28;20048;-72
2023/01/04 08:28:03;;;;;;;10.07;6.15;;;8.70;99.90;;;;;;5029459;28;20029;-71
2023/01/04 08:30:29;;;;;;;9.07;5.68;;;8.80;99.90;;;;;;5027071;28;20446;-72
2023/01/04 08:32:54;;;;;;;7.88;5.60;;;8.80;99.90;;;;;;5024645;28;20036;-72
2023/01/04 08:35:20;;;;;;;10.40;4.65;;;8.90;99.90;;;;;;5021304;28;20075;-72
2023/01/04 08:37:46;;;;;;;9.23;4.82;;;8.80;99.90;;;;;;5024184;28;20037;-72
2023/01/04 08:40:11;;;;;;;7.50;5.20;;;8.90;99.90;;;;;;5028835;28;20069;-72
2023/01/04 08:42:37;;;;;;;7.60;5.15;;;9.00;99.90;;;;;;5026428;28;20148;-72
2023/01/04 08:45:03;;;;;;;9.73;5.78;;;9.00;99.90;;;;;;5030047;28;20041;-72
2023/01/04 08:47:30;;;;;;;8.30;5.40;;;9.00;99.90;;;;;;5025336;28;20048;-73
2023/01/04 08:49:56;;;;;;;7.60;5.15;;;9.10;99.90;;;;;;5026175;28;20497;-73
2023/01/04 08:52:22;;;;;;;7.72;5.53;;;9.10;99.90;;;;;;5026033;28;20049;-72
2023/01/04 08:54:48;;;;;;;8.23;5.45;;;9.20;99.90;;;;;;5030510;28;20462;-72
2023/01/04 08:57:14;;;;;;;9.68;5.82;;;9.10;99.90;;;;;;5024859;28;20041;-71
2023/01/04 08:59:40;;;;;;;8.65;6.00;;;9.10;99.90;;;;;;5023627;28;20477;-72
2023/01/04 09:02:20;;;;;;;8.80;5.78;;;9.20;99.90;;;;;;5028526;28;20025;-72
2023/01/04 09:04:46;;;;;;;7.97;5.60;;;9.30;99.90;;;;;;5022989;28;20108;-72
2023/01/04 09:07:11;;;;;;;10.05;6.72;;;9.30;99.90;;;;;;5017700;28;20191;-71
2023/01/04 09:09:37;;;;;;;8.70;6.13;;;9.30;99.90;;;;;;5023090;28;20065;-71
2023/01/04 09:12:02;;;;;;;10.82;6.57;;;9.30;99.90;;;;;;5027142;28;20045;-72
2023/01/04 09:14:28;;;;;;;10.10;6.10;;;9.30;99.90;;;;;;5025353;28;20454;-71
2023/01/04 09:16:53;;;;;;;10.32;6.40;;;9.40;99.80;;;;;;5025602;28;20025;-71
2023/01/04 09:19:19;;;;;;;8.20;6.22;;;9.50;99.50;;;;;;5023343;28;20106;-72
2023/01/04 09:21:44;;;;;;;7.72;5.97;;;9.50;99.60;;;;;;5020643;28;20068;-72
2023/01/04 09:24:09;;;;;;;7.78;5.65;;;9.50;99.50;;;;;;5024312;28;20025;-74
2023/01/04 09:26:35;;;;;;;7.68;5.45;;;9.50;99.50;;;;;;5022855;28;20037;-72
2023/01/04 09:29:02;;;;;;;7.65;5.60;;;9.50;99.60;;;;;;5023480;28;20425;-73
2023/01/04 09:31:28;;;;;;;7.63;5.10;;;9.50;99.50;;;;;;5024234;28;20025;-72
2023/01/04 09:33:55;;;;;;;8.30;5.80;;;9.50;99.40;;;;;;5025422;28;20489;-72
2023/01/04 09:36:20;;;;;;;9.68;6.53;;;9.50;99.50;;;;;;5028363;28;20378;-72
2023/01/04 09:38:46;;;;;;;9.10;6.32;;;9.60;99.40;;;;;;5021850;28;20048;-72
2023/01/04 09:41:11;;;;;;;8.07;5.72;;;9.50;99.60;;;;;;5028091;28;20034;-72
2023/01/04 09:43:46;;;;;;;9.02;7.00;;;9.50;99.70;;;;;;5026192;28;20051;-73
2023/01/04 09:46:37;;;;;;;9.10;6.90;;;9.50;99.90;;;;;;5024812;28;20029;-73
2023/01/04 09:49:14;;;;;;;9.40;6.78;;;9.50;99.90;;;;;;5016981;28;20064;-73
2023/01/04 09:51:44;;;;;;;10.13;6.82;;;9.50;99.90;;;;;;5017036;28;20409;-72
2023/01/04 09:54:19;;;;;;;9.20;6.80;;;9.60;99.90;;;;;;5025081;28;20033;-73
2023/01/04 09:56:57;;;;;;;9.27;6.57;;;9.50;99.90;;;;;;5025561;28;20077;-73
2023/01/04 09:59:29;;;;;;;8.45;6.30;;;9.50;99.90;;;;;;5021887;28;20386;-72
2023/01/04 10:02:02;;;;;;;7.82;5.50;;;9.50;99.90;;;;;;5017914;28;20533;-72
2023/01/04 10:04:44;;;;;;;8.23;5.82;;;9.50;99.90;;;;;;5016351;28;20072;-72
2023/01/04 10:07:28;;;;;;;7.65;5.32;;;9.50;99.90;;;;;;5022089;28;20030;-73
2023/01/04 10:09:54;;;;;;;8.93;5.40;;;9.50;99.90;;;;;;5017842;28;20041;-72
2023/01/04 10:13:04;;;;;;;16.25;8.60;;;9.50;99.90;;;;;;5025794;28;20034;-72
2023/01/04 10:16:04;;;;;;;15.00;8.60;;;9.40;99.90;;;;;;5018004;28;20037;-73
2023/01/04 10:18:40;;;;;;;9.10;6.25;;;9.50;99.90;;;;;;5020803;28;20033;-73
2023/01/04 10:21:26;;;;;;;5.95;4.22;;;9.50;99.90;;;;;;5022249;28;20463;-75
2023/01/04 10:24:12;;;;;;;6.55;4.65;;;9.50;99.90;;;;;;5020929;28;20033;-73
2023/01/04 10:26:50;;;;;;;8.55;5.05;;;9.50;99.90;;;;;;5028743;28;20061;-73
2023/01/04 10:29:48;;;;;;;7.47;5.35;;;9.50;99.90;;;;;;5026236;28;20051;-73
2023/01/04 10:32:40;;;;;;;8.20;5.35;;;9.60;99.90;;;;;;5018721;28;20112;-73
2023/01/04 10:35:24;;;;;;;7.28;5.15;;;9.60;99.90;;;;;;5018053;28;20083;-73
2023/01/04 10:37:56;;;;;;;7.30;4.70;;;9.50;99.90;;;;;;5015270;28;20584;-72
2023/01/04 10:40:21;;;;;;;6.30;4.32;;;9.60;99.90;;;;;;5021641;28;20378;-73
2023/01/04 10:43:23;;;;;;;6.07;4.15;;;9.60;99.90;;;;;;5023588;28;20029;-71
2023/01/04 10:46:11;;;;;;;5.93;4.13;;;9.60;99.90;;;;;;5018548;28;20378;-70
2023/01/04 10:48:43;;;;;;;6.28;3.80;;;9.60;99.90;;;;;;5027803;28;20084;-70
2023/01/04 10:51:14;;;;;;;6.00;3.92;;;9.60;99.90;;;;;;5025720;28;20068;-70
2023/01/04 10:53:57;;;;;;;5.35;3.67;;;9.70;99.90;;;;;;5028206;28;20043;-71
2023/01/04 10:56:50;;;;;;;6.40;3.58;;;9.70;99.90;;;;;;5026548;28;20429;-72
2023/01/04 10:59:21;;;;;;;5.25;3.40;;;9.70;99.90;;;;;;5017337;28;20140;-71
2023/01/04 11:01:54;;;;;;;6.78;3.58;;;9.70;99.90;;;;;;5028078;28;20090;-71
2023/01/04 11:04:41;;;;;;;5.55;3.67;;;9.70;99.90;;;;;;5030178;28;20041;-71
2023/01/04 11:07:15;;;;;;;5.80;4.15;;;9.70;99.90;;;;;;5023758;28;20056;-71
2023/01/04 11:09:53;;;;;;;4.57;3.10;;;9.70;99.90;;;;;;5022470;28;20095;-70
2023/01/04 11:12:21;;;;;;;4.53;3.05;;;9.70;99.90;;;;;;5024854;28;20029;-70
2023/01/04 11:14:48;;;;;;;5.40;3.42;;;9.80;99.90;;;;;;5032672;28;20033;-69
2023/01/04 11:17:14;;;;;;;5.32;3.42;;;9.80;99.90;;;;;;5025324;28;20037;-73
2023/01/04 11:19:40;;;;;;;6.28;2.95;;;9.80;99.90;;;;;;5026087;28;20042;-73
2023/01/04 11:22:19;;;;;;;4.75;3.30;;;9.80;99.90;;;;;;5023074;28;20549;-71
2023/01/04 11:24:50;;;;;;;5.43;2.97;;;9.90;99.90;;;;;;5025866;28;20489;-72
2023/01/04 11:27:22;;;;;;;4.00;2.63;;;9.90;99.90;;;;;;5027435;28;20033;-72
2023/01/04 11:29:54;;;;;;;4.03;2.65;;;9.90;99.90;;;;;;5028887;28;20084;-72
2023/01/04 11:32:33;;;;;;;4.32;2.92;;;9.90;99.90;;;;;;5028840;28;20025;-71
2023/01/04 11:34:58;;;;;;;3.55;2.92;;;9.90;99.90;;;;;;5018774;28;20036;-71
2023/01/04 11:37:32;;;;;;;6.47;3.50;;;10.00;99.90;;;;;;5028677;28;20034;-71
2023/01/04 11:40:16;;;;;;;5.47;3.47;;;10.00;99.90;;;;;;5029033;28;20377;-70
2023/01/04 11:42:42;;;;;;;3.58;2.50;;;10.00;99.90;;;;;;5025184;28;20433;-70
2023/01/04 11:45:24;;;;;;;4.13;2.90;;;10.10;99.90;;;;;;5024930;28;20095;-68
2023/01/04 11:47:53;;;;;;;3.75;2.80;;;10.10;99.90;;;;;;5027275;28;20033;-70
2023/01/04 11:50:34;;;;;;;4.00;2.83;;;10.10;99.90;;;;;;5024366;28;20382;-70
2023/01/04 11:53:00;;;;;;;2.95;2.17;;;10.20;99.90;;;;;;5023778;28;20045;-71
2023/01/04 11:55:28;;;;;;;3.90;2.65;;;10.20;99.90;;;;;;5031975;28;20045;-71
2023/01/04 11:58:10;;;;;;;3.58;2.80;;;10.30;99.90;;;;;;5026890;28;20108;-71
2023/01/04 12:00:37;;;;;;;3.92;2.67;;;10.30;99.90;;;;;;5022183;28;20030;-70
2023/01/04 12:03:19;;;;;;;5.05;2.80;;;10.20;99.90;;;;;;5024920;28;20087;-70
2023/01/04 12:05:45;;;;;;;5.40;3.80;;;10.30;99.90;;;;;;5025250;28;20444;-71
2023/01/04 12:08:32;;;;;;;3.67;2.50;;;10.30;99.90;;;;;;5026049;28;20132;-70
2023/01/04 12:11:00;;;;;;;2.80;2.08;;;10.30;99.90;;;;;;5026806;28;20029;-70
2023/01/04 12:13:27;;;;;;;2.70;2.22;;;10.30;99.90;;;;;;5026541;28;20044;-71
2023/01/04 12:16:13;;;;;;;3.22;1.98;;;10.30;99.90;;;;;;5028658;28;20030;-72
2023/01/04 12:18:41;;;;;;;2.60;2.13;;;10.30;99.90;;;;;;5029905;28;20033;-72
2023/01/04 12:21:20;;;;;;;3.00;2.08;;;10.30;99.90;;;;;;5027632;28;20482;-72
2023/01/04 12:23:47;;;;;;;1.85;1.52;;;10.30;99.90;;;;;;5030788;28;20086;-72
2023/01/04 12:26:13;;;;;;;2.85;1.90;;;10.30;99.90;;;;;;5022193;28;20471;-72
2023/01/04 12:28:43;;;;;;;2.10;1.70;;;10.30;99.90;;;;;;5030798;28;20029;-71
2023/01/04 12:31:17;;;;;;;2.10;1.63;;;10.30;99.90;;;;;;5029383;28;20496;-71
2023/01/04 12:33:44;;;;;;;2.08;1.60;;;10.30;99.90;;;;;;5018235;28;20091;-72
2023/01/04 12:36:15;;;;;;;2.40;1.55;;;10.40;99.90;;;;;;5018399;28;20466;-70
2023/01/04 12:39:01;;;;;;;1.33;1.13;;;10.40;99.90;;;;;;5021455;28;20402;-70
2023/01/04 12:41:32;;;;;;;1.70;1.30;;;10.40;99.90;;;;;;5029855;28;20104;-71
2023/01/04 12:43:58;;;;;;;1.90;1.25;;;10.50;99.90;;;;;;5020871;28;20466;-71
2023/01/04 12:49:48;;;;;;;1.95;1.02;;;10.60;99.90;;;;;;5020090;28;20043;-71
2023/01/04 12:52:13;;;;;;;1.00;0.90;;;10.50;99.90;;;;;;5007768;28;20048;-72
2023/01/04 12:54:59;;;;;;;2.22;0.98;;;10.50;99.90;;;;;;5020494;28;20376;-71
2023/01/04 12:57:30;;;;;;;1.20;0.95;;;10.50;99.90;;;;;;5033577;28;20043;-71
2023/01/04 13:00:13;;;;;;;1.83;1.17;;;10.50;99.90;;;;;;5024331;28;20473;-70
2023/01/04 13:02:46;;;;;;;1.08;0.98;;;10.50;99.90;;;;;;5029573;28;20025;-71
2023/01/04 13:05:17;;;;;;;1.55;1.17;;;10.50;99.90;;;;;;5023412;28;20401;-71
2023/01/04 13:07:46;;;;;;;1.27;0.77;;;10.60;99.90;;;;;;5023907;28;20033;-71
2023/01/04 13:10:27;;;;;;;1.50;0.90;;;10.60;99.90;;;;;;5015473;28;20038;-70
2023/01/04 13:13:18;;;;;;;1.35;0.70;;;10.60;99.90;;;;;;5017633;28;20029;-71
2023/01/04 13:16:05;;;;;;;1.20;1.08;;;10.60;99.90;;;;;;5016363;28;20034;-70
2023/01/04 13:18:38;;;;;;;3.05;1.17;;;10.60;99.90;;;;;;5017531;28;22842;-70
2023/01/04 13:21:26;;;;;;;3.17;1.05;;;10.60;99.90;;;;;;5015809;28;20030;-70
2023/01/04 13:23:55;;;;;;;1.60;1.13;;;10.60;99.90;;;;;;5021132;28;20033;-71
2023/01/04 13:26:40;;;;;;;1.73;1.08;;;10.60;99.90;;;;;;5010583;28;20061;-72
2023/01/04 13:29:14;;;;;;;2.67;1.20;;;10.60;99.90;;;;;;5022184;28;20076;-70
2023/01/04 13:31:54;;;;;;;2.22;1.10;;;10.60;99.90;;;;;;5027656;28;20382;-70
2023/01/04 13:34:28;;;;;;;2.97;1.00;;;10.60;99.90;;;;;;5020312;28;20021;-70
2023/01/04 13:37:04;;;;;;;1.17;0.98;;;10.60;99.90;;;;;;5026825;28;20045;-71
2023/01/04 13:39:29;;;;;;;1.50;1.00;;;10.50;99.90;;;;;;5020060;28;20168;-68
2023/01/04 13:41:56;;;;;;;2.88;1.05;;;10.50;99.90;;;;;;5026120;28;20772;-71
2023/01/04 13:44:48;;;;;;;1.90;1.10;;;10.60;99.90;;;;;;5025173;28;20353;-73
2023/01/04 13:47:14;;;;;;;1.67;0.88;;;10.50;99.90;;;;;;5022385;28;20048;-74
2023/01/04 13:49:40;;;;;;;1.20;0.85;;;10.50;99.90;;;;;;5028606;28;20037;-73
2023/01/04 13:52:35;;;;;;;2.28;0.80;;;10.50;99.90;;;;;;5029787;28;20036;-73
2023/01/04 13:55:20;;;;;;;0.90;0.80;;;10.50;99.90;;;;;;5021998;28;20049;-73
2023/01/04 13:57:57;;;;;;;1.70;1.10;;;10.50;99.90;;;;;;5024529;28;20046;-74
2023/01/04 14:00:32;;;;;;;1.27;1.00;;;10.50;99.90;;;;;;5020958;28;20075;-73
2023/01/04 14:03:06;;;;;;;3.63;1.17;;;10.50;99.90;;;;;;5024845;28;20040;-73